createdAt,value
2023-05-05T00:00:41.288Z,1.30
2023-05-05T00:01:41.337Z,1.30
2023-05-05T00:02:41.511Z,1.29
2023-05-05T00:03:41.579Z,1.29
2023-05-05T00:04:41.601Z,1.29
2023-05-05T00:05:41.676Z,1.28
2023-05-05T00:06:41.766Z,1.30
2023-05-05T00:07:41.856Z,1.29
2023-05-05T00:08:41.934Z,1.27
2023-05-05T00:09:42.024Z,1.28
2023-05-05T00:10:42.113Z,1.29
2023-05-05T00:11:42.190Z,1.27
2023-05-05T00:12:42.408Z,1.30
2023-05-05T00:13:42.369Z,1.26
2023-05-05T00:14:42.465Z,1.26
2023-05-05T00:15:42.568Z,1.26
2023-05-05T00:16:42.665Z,1.26
2023-05-05T00:17:42.737Z,1.27
2023-05-05T00:18:42.802Z,1.26
2023-05-05T00:19:42.894Z,1.25
2023-05-05T00:20:43.000Z,1.26
2023-05-05T00:21:43.055Z,1.23
2023-05-05T00:22:43.151Z,1.26
2023-05-05T00:23:43.305Z,1.25
2023-05-05T00:24:43.314Z,1.22
2023-05-05T00:25:43.416Z,1.25
2023-05-05T00:26:43.487Z,1.23
2023-05-05T00:27:43.658Z,1.24
2023-05-05T00:28:43.663Z,1.24
2023-05-05T00:29:43.748Z,1.24
2023-05-05T00:30:43.834Z,1.21
2023-05-05T00:31:43.972Z,1.22
2023-05-05T00:32:44.043Z,1.23
2023-05-05T00:33:44.089Z,1.22
2023-05-05T00:34:44.171Z,1.22
2023-05-05T00:35:44.305Z,1.20
2023-05-05T00:36:45.356Z,1.23
2023-05-05T00:37:44.426Z,1.19
2023-05-05T00:38:44.513Z,1.22
2023-05-05T00:39:44.602Z,1.21
2023-05-05T00:40:44.815Z,1.20
2023-05-05T00:41:44.764Z,1.23
2023-05-05T00:42:44.853Z,1.21
2023-05-05T00:43:44.932Z,1.22
2023-05-05T00:44:45.034Z,1.22
2023-05-05T00:45:45.095Z,1.21
2023-05-05T00:46:45.224Z,1.21
2023-05-05T00:47:45.283Z,1.19
2023-05-05T00:48:45.350Z,1.19
2023-05-05T00:49:45.482Z,1.19
2023-05-05T00:50:45.515Z,1.22
2023-05-05T00:51:45.615Z,1.19
2023-05-05T00:52:45.690Z,1.18
2023-05-05T00:53:45.762Z,1.18
2023-05-05T00:54:45.872Z,1.20
2023-05-05T00:55:46.001Z,1.22
2023-05-05T00:56:46.807Z,1.16
2023-05-05T00:57:46.131Z,1.20
2023-05-05T00:58:46.202Z,1.17
2023-05-05T00:59:46.323Z,1.17
2023-05-05T01:00:46.372Z,1.18
2023-05-05T01:01:46.533Z,1.17
2023-05-05T01:02:46.749Z,1.18
2023-05-05T01:03:46.685Z,1.17
2023-05-05T01:04:46.705Z,1.16
2023-05-05T01:05:46.793Z,1.18
2023-05-05T01:06:46.889Z,1.13
2023-05-05T01:07:46.972Z,1.16
2023-05-05T01:08:47.050Z,1.16
2023-05-05T01:09:47.142Z,1.13
2023-05-05T01:10:47.226Z,1.17
2023-05-05T01:11:47.378Z,1.17
2023-05-05T01:12:47.464Z,1.16
2023-05-05T01:13:47.557Z,1.15
2023-05-05T01:14:47.669Z,1.13
2023-05-05T01:15:47.684Z,1.12
2023-05-05T01:16:47.773Z,1.13
2023-05-05T01:17:47.912Z,1.13
2023-05-05T01:18:47.953Z,1.14
2023-05-05T01:19:48.036Z,1.14
2023-05-05T01:20:48.147Z,1.12
2023-05-05T01:21:48.234Z,1.11
2023-05-05T01:22:48.331Z,1.11
2023-05-05T01:23:48.470Z,1.12
2023-05-05T01:24:48.508Z,1.14
2023-05-05T01:25:48.593Z,1.12
2023-05-05T01:26:48.686Z,1.10
2023-05-05T01:27:48.772Z,1.13
2023-05-05T01:28:48.870Z,1.13
2023-05-05T01:29:48.975Z,1.11
2023-05-05T01:30:49.053Z,1.11
2023-05-05T01:31:49.185Z,1.10
2023-05-05T01:32:49.263Z,1.09
2023-05-05T01:33:49.311Z,1.09
2023-05-05T01:34:49.392Z,1.11
2023-05-05T01:35:49.490Z,1.07
2023-05-05T01:36:49.564Z,1.09
2023-05-05T01:37:49.661Z,1.08
2023-05-05T01:38:49.725Z,1.10
2023-05-05T01:39:49.844Z,1.08
2023-05-05T01:40:49.908Z,1.07
2023-05-05T01:41:49.988Z,1.07
2023-05-05T01:42:50.079Z,1.06
2023-05-05T01:43:50.158Z,1.05
2023-05-05T01:44:50.249Z,1.05
2023-05-05T01:45:50.438Z,1.05
2023-05-05T01:46:50.436Z,1.04
2023-05-05T01:47:50.534Z,1.06
2023-05-05T01:48:50.629Z,1.04
2023-05-05T01:49:50.731Z,1.05
2023-05-05T01:50:50.814Z,1.04
2023-05-05T01:51:50.910Z,1.01
2023-05-05T01:52:51.340Z,1.03
2023-05-05T01:53:51.087Z,1.04
2023-05-05T01:54:51.179Z,1.03
2023-05-05T01:55:51.259Z,1.03
2023-05-05T01:56:51.835Z,1.01
2023-05-05T01:57:51.442Z,1.01
2023-05-05T01:58:51.543Z,1.03
2023-05-05T01:59:51.640Z,1.03
2023-05-05T02:00:51.755Z,1.02
2023-05-05T02:01:51.903Z,1.02
2023-05-05T02:02:51.952Z,1.01
2023-05-05T02:03:51.985Z,1.01
2023-05-05T02:04:52.071Z,1.01
2023-05-05T02:05:52.169Z,1.03
2023-05-05T02:06:52.231Z,1.01
2023-05-05T02:07:52.328Z,1.01
2023-05-05T02:08:52.378Z,1.00
2023-05-05T02:09:52.452Z,0.99
2023-05-05T02:10:52.527Z,1.00
2023-05-05T02:11:52.704Z,1.01
2023-05-05T02:12:52.791Z,0.98
2023-05-05T02:13:52.795Z,0.98
2023-05-05T02:14:52.868Z,0.97
2023-05-05T02:15:53.011Z,1.00
2023-05-05T02:16:53.099Z,1.01
2023-05-05T02:17:53.219Z,0.99
2023-05-05T02:18:53.176Z,0.99
2023-05-05T02:19:53.289Z,0.99
2023-05-05T02:20:53.371Z,1.00
2023-05-05T02:21:53.452Z,0.99
2023-05-05T02:22:53.518Z,0.99
2023-05-05T02:23:53.610Z,0.99
2023-05-05T02:24:53.660Z,0.99
2023-05-05T02:25:53.773Z,0.98
2023-05-05T02:26:53.846Z,0.98
2023-05-05T02:27:53.954Z,0.98
2023-05-05T02:28:54.040Z,0.99
2023-05-05T02:29:54.111Z,0.96
2023-05-05T02:30:56.889Z,0.99
2023-05-05T02:31:54.234Z,0.99
2023-05-05T02:32:54.335Z,0.98
2023-05-05T02:33:54.280Z,0.96
2023-05-05T02:34:54.309Z,0.98
2023-05-05T02:35:54.330Z,0.98
2023-05-05T02:36:54.357Z,0.97
2023-05-05T02:37:54.379Z,0.96
2023-05-05T02:38:54.412Z,0.97
2023-05-05T02:39:54.414Z,0.97
2023-05-05T02:40:54.455Z,0.96
2023-05-05T02:41:54.530Z,0.96
2023-05-05T02:42:54.577Z,0.96
2023-05-05T02:43:54.523Z,0.97
2023-05-05T02:44:54.549Z,0.96
2023-05-05T02:45:54.568Z,0.95
2023-05-05T02:46:54.728Z,0.96
2023-05-05T02:47:54.639Z,0.96
2023-05-05T02:48:54.623Z,0.96
2023-05-05T02:49:54.643Z,0.95
2023-05-05T02:50:54.669Z,0.96
2023-05-05T02:51:54.709Z,0.97
2023-05-05T02:52:54.709Z,0.96
2023-05-05T02:53:54.739Z,0.96
2023-05-05T02:54:54.831Z,0.95
2023-05-05T02:55:54.773Z,0.95
2023-05-05T02:56:54.795Z,0.96
2023-05-05T02:57:54.808Z,0.96
2023-05-05T02:58:54.824Z,0.95
2023-05-05T02:59:54.844Z,0.91
2023-05-05T03:00:54.930Z,0.92
2023-05-05T03:01:54.933Z,0.93
2023-05-05T03:02:55.005Z,0.92
2023-05-05T03:03:54.975Z,0.92
2023-05-05T03:04:54.987Z,0.93
2023-05-05T03:05:54.965Z,0.92
2023-05-05T03:06:55.007Z,0.92
2023-05-05T03:07:55.373Z,0.93
2023-05-05T03:08:55.040Z,0.92
2023-05-05T03:09:55.051Z,0.92
2023-05-05T03:10:55.085Z,0.94
2023-05-05T03:11:55.105Z,0.92
2023-05-05T03:12:55.184Z,0.92
2023-05-05T03:13:55.172Z,0.92
2023-05-05T03:14:55.882Z,0.95
2023-05-05T03:15:55.354Z,0.94
2023-05-05T03:16:55.406Z,0.91
2023-05-05T03:17:55.578Z,0.93
2023-05-05T03:18:55.520Z,0.92
2023-05-05T03:19:55.611Z,0.92
2023-05-05T03:20:55.715Z,0.91
2023-05-05T03:21:55.790Z,0.91
2023-05-05T03:22:56.867Z,0.92
2023-05-05T03:23:55.965Z,0.90
2023-05-05T03:24:56.025Z,0.90
2023-05-05T03:25:56.086Z,0.91
2023-05-05T03:26:56.165Z,0.88
2023-05-05T03:27:56.238Z,0.90
2023-05-05T03:28:56.304Z,0.92
2023-05-05T03:29:56.471Z,0.91
2023-05-05T03:30:56.473Z,0.90
2023-05-05T03:31:56.567Z,0.89
2023-05-05T03:32:56.629Z,0.89
2023-05-05T03:33:56.645Z,0.91
2023-05-05T03:34:56.789Z,0.90
2023-05-05T03:35:56.828Z,0.89
2023-05-05T03:36:56.826Z,0.90
2023-05-05T03:37:56.914Z,0.90
2023-05-05T03:38:56.968Z,0.88
2023-05-05T03:39:57.032Z,0.87
2023-05-05T03:40:57.106Z,0.91
2023-05-05T03:41:57.169Z,0.88
2023-05-05T03:42:57.226Z,0.90
2023-05-05T03:43:57.300Z,0.89
2023-05-05T03:44:57.366Z,0.89
2023-05-05T03:45:57.494Z,0.88
2023-05-05T03:46:57.631Z,0.88
2023-05-05T03:47:57.639Z,0.89
2023-05-05T03:48:57.718Z,0.89
2023-05-05T03:49:57.795Z,0.88
2023-05-05T03:50:57.844Z,0.90
2023-05-05T03:51:57.895Z,0.88
2023-05-05T03:52:57.963Z,0.88
2023-05-05T03:53:57.991Z,0.88
2023-05-05T03:54:58.025Z,0.87
2023-05-05T03:55:58.064Z,0.88
2023-05-05T03:56:58.113Z,0.89
2023-05-05T03:57:58.168Z,0.87
2023-05-05T03:58:58.237Z,0.87
2023-05-05T03:59:58.277Z,0.87
2023-05-05T04:00:58.330Z,0.87
2023-05-05T04:01:58.355Z,0.86
2023-05-05T04:02:58.469Z,0.86
2023-05-05T04:03:58.404Z,0.87
2023-05-05T04:04:58.416Z,0.86
2023-05-05T04:05:58.435Z,0.86
2023-05-05T04:06:58.486Z,0.87
2023-05-05T04:07:58.498Z,0.85
2023-05-05T04:08:58.517Z,0.85
2023-05-05T04:09:58.564Z,0.86
2023-05-05T04:10:58.923Z,0.85
2023-05-05T04:11:58.618Z,0.86
2023-05-05T04:12:58.698Z,0.87
2023-05-05T04:13:58.676Z,0.85
2023-05-05T04:14:58.707Z,0.84
2023-05-05T04:15:58.738Z,0.85
2023-05-05T04:16:58.745Z,0.84
2023-05-05T04:17:58.842Z,0.85
2023-05-05T04:18:58.792Z,0.85
2023-05-05T04:19:58.825Z,0.85
2023-05-05T04:20:58.852Z,0.84
2023-05-05T04:21:58.851Z,0.84
2023-05-05T04:22:58.885Z,0.85
2023-05-05T04:23:58.961Z,0.84
2023-05-05T04:24:58.937Z,0.82
2023-05-05T04:25:59.002Z,0.86
2023-05-05T04:26:59.016Z,0.83
2023-05-05T04:27:59.061Z,0.83
2023-05-05T04:28:59.100Z,0.83
2023-05-05T04:29:59.152Z,0.83
2023-05-05T04:30:59.180Z,0.83
2023-05-05T04:31:59.194Z,0.82
2023-05-05T04:32:59.249Z,0.83
2023-05-05T04:33:59.250Z,0.82
2023-05-05T04:34:59.290Z,0.83
2023-05-05T04:35:59.318Z,0.81
2023-05-05T04:36:59.350Z,0.82
2023-05-05T04:37:59.367Z,0.82
2023-05-05T04:38:59.494Z,0.82
2023-05-05T04:39:59.408Z,0.81
2023-05-05T04:40:59.456Z,0.81
2023-05-05T04:41:59.456Z,0.81
2023-05-05T04:42:59.500Z,0.81
2023-05-05T04:43:59.527Z,0.80
2023-05-05T04:44:59.618Z,0.81
2023-05-05T04:45:59.579Z,0.79
2023-05-05T04:46:59.607Z,0.80
2023-05-05T04:47:59.762Z,0.81
2023-05-05T04:48:59.661Z,0.80
2023-05-05T04:49:59.694Z,0.81
2023-05-05T04:50:59.729Z,0.81
2023-05-05T04:51:59.763Z,0.81
2023-05-05T04:52:59.869Z,0.82
2023-05-05T04:53:59.851Z,0.79
2023-05-05T04:54:59.926Z,0.81
2023-05-05T04:55:59.881Z,0.80
2023-05-05T04:56:59.905Z,0.79
2023-05-05T04:57:59.955Z,0.79
2023-05-05T04:58:59.969Z,0.79
2023-05-05T04:59:59.983Z,0.79
2023-05-05T05:01:00.005Z,0.79
2023-05-05T05:02:00.085Z,0.80
2023-05-05T05:03:00.150Z,0.80
2023-05-05T05:04:00.340Z,0.79
2023-05-05T05:05:00.160Z,0.79
2023-05-05T05:06:00.150Z,0.79
2023-05-05T05:07:00.170Z,0.79
2023-05-05T05:08:00.203Z,0.78
2023-05-05T05:09:00.225Z,0.78
2023-05-05T05:10:00.260Z,0.77
2023-05-05T05:11:00.292Z,0.77
2023-05-05T05:12:00.314Z,0.79
2023-05-05T05:13:00.373Z,0.77
2023-05-05T05:14:00.361Z,0.77
2023-05-05T05:15:00.512Z,0.77
2023-05-05T05:16:00.551Z,0.77
2023-05-05T05:17:00.468Z,0.78
2023-05-05T05:18:00.521Z,0.77
2023-05-05T05:19:01.798Z,0.68
2023-05-05T05:20:01.559Z,0.67
2023-05-05T05:21:00.596Z,0.63
2023-05-05T05:22:00.668Z,0.64
2023-05-05T05:23:00.654Z,0.66
2023-05-05T05:24:00.892Z,0.64
2023-05-05T05:25:00.697Z,0.70
2023-05-05T05:26:00.733Z,0.68
2023-05-05T05:27:00.761Z,0.67
2023-05-05T05:28:09.448Z,0.46
2023-05-05T05:29:01.824Z,0.47
2023-05-05T05:30:01.139Z,0.48
2023-05-05T05:31:00.886Z,0.49
2023-05-05T05:32:01.093Z,0.51
2023-05-05T05:33:00.961Z,0.36
2023-05-05T05:34:01.198Z,0.40
2023-05-05T05:35:01.024Z,0.34
2023-05-05T05:36:01.073Z,0.34
2023-05-05T05:37:01.183Z,0.34
2023-05-05T05:38:01.177Z,0.34
2023-05-05T05:39:01.209Z,0.41
2023-05-05T05:40:01.265Z,0.49
2023-05-05T05:41:01.319Z,0.51
2023-05-05T05:42:01.445Z,0.52
2023-05-05T05:43:01.586Z,0.50
2023-05-05T05:44:01.683Z,0.50
2023-05-05T05:45:01.795Z,0.52
2023-05-05T05:46:01.947Z,0.55
2023-05-05T05:47:02.002Z,0.57
2023-05-05T05:48:02.156Z,0.49
2023-05-05T05:49:02.242Z,0.51
2023-05-05T05:50:02.309Z,0.56
2023-05-05T05:51:02.423Z,0.56
2023-05-05T05:52:02.519Z,0.56
2023-05-05T05:53:02.618Z,0.53
2023-05-05T05:54:02.717Z,0.60
2023-05-05T05:55:02.823Z,0.54
2023-05-05T05:56:03.851Z,0.60
2023-05-05T05:57:03.030Z,0.56
2023-05-05T05:58:03.105Z,0.62
2023-05-05T05:59:03.190Z,0.56
2023-05-05T06:00:03.281Z,0.53
2023-05-05T06:01:03.372Z,0.51
2023-05-05T06:02:03.484Z,0.53
2023-05-05T06:03:03.581Z,0.50
2023-05-05T06:04:03.744Z,0.54
2023-05-05T06:05:04.447Z,0.53
2023-05-05T06:06:03.841Z,0.53
2023-05-05T06:07:03.946Z,0.50
2023-05-05T06:08:04.055Z,0.51
2023-05-05T06:09:04.177Z,0.59
2023-05-05T06:10:18.676Z,0.50
2023-05-05T06:11:05.324Z,0.50
2023-05-05T06:12:04.355Z,0.51
2023-05-05T06:13:04.447Z,0.52
2023-05-05T06:14:04.454Z,0.57
2023-05-05T06:15:04.504Z,0.54
2023-05-05T06:16:04.571Z,0.49
2023-05-05T06:17:04.613Z,0.52
2023-05-05T06:18:04.783Z,0.58
2023-05-05T06:19:04.709Z,0.54
2023-05-05T06:20:04.819Z,0.50
2023-05-05T06:21:04.912Z,0.53
2023-05-05T06:22:05.020Z,0.50
2023-05-05T06:23:05.152Z,0.53
2023-05-05T06:24:05.274Z,0.49
2023-05-05T06:25:07.929Z,0.52
2023-05-05T06:26:05.643Z,0.67
2023-05-05T06:27:05.764Z,0.88
2023-05-05T06:28:05.942Z,1.05
2023-05-05T06:29:05.951Z,1.18
2023-05-05T06:30:06.191Z,1.25
2023-05-05T06:31:06.103Z,1.36
2023-05-05T06:32:06.142Z,1.47
2023-05-05T06:33:06.278Z,1.58
2023-05-05T06:34:06.350Z,1.67
2023-05-05T06:35:06.421Z,1.73
2023-05-05T06:36:06.496Z,1.86
2023-05-05T06:37:06.698Z,1.99
2023-05-05T06:38:06.659Z,2.13
2023-05-05T06:39:06.642Z,2.30
2023-05-05T06:40:06.931Z,2.42
2023-05-05T06:41:07.467Z,2.48
2023-05-05T06:42:06.748Z,2.66
2023-05-05T06:43:06.789Z,2.87
2023-05-05T06:44:06.867Z,3.06
2023-05-05T06:45:06.945Z,3.30
2023-05-05T06:46:07.001Z,3.50
2023-05-05T06:47:07.161Z,3.75
2023-05-05T06:48:07.264Z,3.90
2023-05-05T06:49:08.026Z,4.12
2023-05-05T06:50:07.542Z,4.38
2023-05-05T06:51:07.415Z,4.73
2023-05-05T06:52:07.485Z,4.84
2023-05-05T06:53:07.545Z,5.24
2023-05-05T06:54:07.630Z,5.32
2023-05-05T06:55:07.708Z,5.84
2023-05-05T06:56:07.774Z,6.36
2023-05-05T06:57:07.848Z,6.69
2023-05-05T06:58:07.905Z,7.07
2023-05-05T06:59:07.965Z,7.15
2023-05-05T07:00:08.319Z,7.74
2023-05-05T07:01:08.234Z,8.63
2023-05-05T07:02:08.166Z,9.47
2023-05-05T07:03:08.249Z,9.98
2023-05-05T07:04:08.361Z,10.21
2023-05-05T07:05:08.328Z,10.99
2023-05-05T07:06:08.378Z,11.62
2023-05-05T07:07:08.446Z,12.34
2023-05-05T07:08:08.465Z,12.84
2023-05-05T07:09:08.532Z,13.49
2023-05-05T07:10:08.753Z,14.42
2023-05-05T07:11:08.603Z,15.05
2023-05-05T07:12:08.903Z,15.85
2023-05-05T07:13:08.702Z,16.96
2023-05-05T07:14:08.727Z,18.76
2023-05-05T07:15:23.475Z,19.83
2023-05-05T07:16:09.796Z,19.89
2023-05-05T07:17:08.899Z,20.16
2023-05-05T07:18:08.895Z,20.64
2023-05-05T07:19:08.993Z,21.40
2023-05-05T07:20:09.132Z,21.38
2023-05-05T07:21:08.836Z,20.04
2023-05-05T07:22:08.847Z,21.42
2023-05-05T07:23:08.849Z,21.53
2023-05-05T07:24:08.870Z,21.56
2023-05-05T07:25:08.877Z,21.57
2023-05-05T07:26:08.897Z,22.26
2023-05-05T07:27:08.923Z,23.37
2023-05-05T07:28:08.933Z,23.82
2023-05-05T07:29:08.912Z,24.76
2023-05-05T07:30:13.018Z,26.78
2023-05-05T07:31:09.970Z,26.84
2023-05-05T07:32:09.039Z,27.13
2023-05-05T07:33:09.058Z,27.86
2023-05-05T07:34:08.973Z,29.94
2023-05-05T07:35:09.024Z,33.20
2023-05-05T07:36:08.969Z,35.24
2023-05-05T07:37:09.898Z,36.88
2023-05-05T07:38:10.894Z,38.47
2023-05-05T07:39:08.996Z,39.10
2023-05-05T07:40:09.359Z,40.74
2023-05-05T07:41:09.013Z,44.41
2023-05-05T07:42:09.012Z,45.35
2023-05-05T07:43:09.015Z,47.88
2023-05-05T07:44:09.014Z,50.62
2023-05-05T07:45:09.023Z,51.04
2023-05-05T07:46:09.265Z,52.86
2023-05-05T07:47:09.014Z,54.48
2023-05-05T07:48:09.129Z,58.86
2023-05-05T07:49:09.139Z,59.29
2023-05-05T07:50:09.350Z,62.86
2023-05-05T07:51:09.017Z,67.19
2023-05-05T07:52:09.031Z,69.51
2023-05-05T07:53:14.496Z,69.52
2023-05-05T07:54:11.032Z,69.70
2023-05-05T07:55:09.015Z,70.54
2023-05-05T07:56:09.103Z,72.70
2023-05-05T07:57:09.035Z,75.60
2023-05-05T07:58:09.062Z,82.25
2023-05-05T07:59:09.036Z,83.85
2023-05-05T08:00:11.996Z,84.10
2023-05-05T08:01:09.037Z,85.41
2023-05-05T08:02:09.034Z,88.02
2023-05-05T08:03:11.688Z,93.17
2023-05-05T08:04:09.638Z,84.56
2023-05-05T08:05:09.822Z,87.27
2023-05-05T08:06:09.054Z,92.10
2023-05-05T08:07:09.051Z,102.47
2023-05-05T08:08:09.086Z,118.61
2023-05-05T08:09:09.051Z,122.86
2023-05-05T08:10:09.055Z,125.10
2023-05-05T08:11:09.070Z,136.25
2023-05-05T08:12:09.047Z,136.50
2023-05-05T08:13:09.081Z,132.99
2023-05-05T08:14:09.064Z,138.83
2023-05-05T08:15:09.354Z,125.17
2023-05-05T08:16:09.172Z,100.44
2023-05-05T08:17:09.110Z,85.13
2023-05-05T08:18:09.114Z,74.07
2023-05-05T08:19:21.173Z,60.26
2023-05-05T08:20:11.018Z,60.32
2023-05-05T08:21:10.007Z,60.53
2023-05-05T08:22:09.172Z,56.41
2023-05-05T08:23:09.189Z,53.66
2023-05-05T08:24:09.208Z,49.96
2023-05-05T08:25:09.337Z,49.69
2023-05-05T08:26:09.233Z,47.89
2023-05-05T08:27:09.237Z,47.33
2023-05-05T08:28:09.269Z,45.77
2023-05-05T08:29:09.496Z,45.30
2023-05-05T08:30:09.274Z,45.21
2023-05-05T08:31:09.330Z,44.62
2023-05-05T08:32:09.314Z,43.51
2023-05-05T08:33:09.344Z,42.93
2023-05-05T08:34:09.334Z,43.42
2023-05-05T08:35:09.531Z,43.16
2023-05-05T08:36:09.401Z,43.86
2023-05-05T08:37:09.360Z,42.92
2023-05-05T08:38:12.009Z,44.07
2023-05-05T08:39:10.427Z,43.10
2023-05-05T08:40:09.678Z,42.87
2023-05-05T08:41:10.516Z,42.55
2023-05-05T08:42:09.712Z,42.26
2023-05-05T08:43:09.753Z,42.16
2023-05-05T08:44:09.761Z,41.29
2023-05-05T08:45:10.689Z,41.90
2023-05-05T08:46:09.827Z,41.91
2023-05-05T08:47:09.999Z,41.64
2023-05-05T08:48:09.913Z,41.56
2023-05-05T08:49:09.938Z,41.47
2023-05-05T08:50:09.984Z,41.38
2023-05-05T08:51:10.037Z,40.82
2023-05-05T08:52:10.208Z,41.11
2023-05-05T08:53:10.103Z,40.27
2023-05-05T08:54:10.202Z,41.78
2023-05-05T08:55:10.230Z,41.63
2023-05-05T08:56:11.076Z,40.95
2023-05-05T08:57:10.273Z,40.80
2023-05-05T08:58:10.332Z,40.12
2023-05-05T08:59:10.367Z,40.57
2023-05-05T09:00:10.409Z,40.54
2023-05-05T09:01:10.484Z,39.71
2023-05-05T09:02:10.550Z,40.22
2023-05-05T09:03:10.673Z,39.75
2023-05-05T09:04:10.596Z,40.61
2023-05-05T09:05:10.683Z,39.61
2023-05-05T09:06:10.704Z,39.63
2023-05-05T09:07:10.718Z,39.70
2023-05-05T09:08:10.948Z,39.48
2023-05-05T09:09:10.813Z,39.12
2023-05-05T09:10:10.862Z,40.45
2023-05-05T09:11:10.915Z,39.25
2023-05-05T09:12:11.037Z,40.28
2023-05-05T09:13:11.042Z,38.24
2023-05-05T09:14:11.057Z,39.72
2023-05-05T09:15:11.124Z,39.42
2023-05-05T09:16:11.262Z,38.11
2023-05-05T09:17:11.238Z,38.83
2023-05-05T09:18:11.365Z,38.51
2023-05-05T09:19:11.398Z,38.05
2023-05-05T09:20:11.417Z,33.60
2023-05-05T09:21:11.494Z,33.65
2023-05-05T09:22:11.607Z,32.74
2023-05-05T09:23:11.627Z,32.09
2023-05-05T09:24:11.855Z,29.88
2023-05-05T09:25:11.733Z,30.25
2023-05-05T09:26:11.725Z,30.29
2023-05-05T09:27:11.728Z,30.29
2023-05-05T09:28:11.747Z,30.16
2023-05-05T09:29:11.758Z,28.15
2023-05-05T09:30:11.756Z,27.28
2023-05-05T09:31:11.822Z,26.32
2023-05-05T09:32:11.763Z,25.92
2023-05-05T09:33:11.805Z,24.91
2023-05-05T09:34:11.777Z,23.72
2023-05-05T09:35:11.852Z,23.76
2023-05-05T09:36:11.759Z,24.37
2023-05-05T09:37:12.577Z,24.67
2023-05-05T09:38:11.798Z,24.58
2023-05-05T09:39:11.802Z,23.84
2023-05-05T09:40:12.019Z,23.77
2023-05-05T09:41:11.800Z,24.17
2023-05-05T09:42:11.784Z,23.96
2023-05-05T09:43:11.831Z,23.64
2023-05-05T09:44:11.794Z,23.59
2023-05-05T09:45:11.807Z,23.03
2023-05-05T09:46:12.533Z,22.11
2023-05-05T09:47:26.081Z,22.03
2023-05-05T09:48:13.968Z,22.06
2023-05-05T09:49:11.852Z,22.12
2023-05-05T09:50:12.820Z,22.05
2023-05-05T09:51:11.816Z,22.19
2023-05-05T09:52:12.525Z,22.15
2023-05-05T09:53:11.833Z,22.09
2023-05-05T09:54:12.527Z,21.71
2023-05-05T09:55:11.839Z,22.39
2023-05-05T09:56:12.044Z,23.13
2023-05-05T09:57:11.854Z,24.45
2023-05-05T09:58:11.894Z,23.29
2023-05-05T09:59:11.919Z,23.13
2023-05-05T10:00:12.131Z,23.23
2023-05-05T10:01:11.992Z,23.91
2023-05-05T10:02:11.957Z,23.69
2023-05-05T10:03:11.856Z,23.56
2023-05-05T10:04:11.862Z,24.64
2023-05-05T10:05:11.882Z,23.23
2023-05-05T10:06:11.873Z,22.69
2023-05-05T10:07:11.867Z,24.16
2023-05-05T10:08:11.881Z,23.69
2023-05-05T10:09:11.879Z,23.83
2023-05-05T10:10:12.046Z,24.07
2023-05-05T10:11:11.881Z,24.65
2023-05-05T10:12:12.043Z,25.45
2023-05-05T10:13:12.009Z,26.20
2023-05-05T10:14:12.530Z,27.13
2023-05-05T10:15:11.917Z,27.33
2023-05-05T10:16:12.544Z,27.48
2023-05-05T10:17:12.453Z,27.54
2023-05-05T10:18:12.581Z,29.00
2023-05-05T10:19:11.936Z,30.10
2023-05-05T10:20:11.951Z,31.04
2023-05-05T10:21:12.540Z,32.63
2023-05-05T10:22:11.982Z,33.06
2023-05-05T10:23:11.981Z,34.51
2023-05-05T10:24:11.976Z,36.44
2023-05-05T10:25:12.083Z,38.42
2023-05-05T10:26:12.074Z,39.59
2023-05-05T10:27:12.715Z,40.93
2023-05-05T10:28:12.272Z,41.39
2023-05-05T10:29:12.324Z,43.25
2023-05-05T10:30:12.289Z,37.18
2023-05-05T10:31:24.576Z,38.76
2023-05-05T10:32:37.123Z,38.79
2023-05-05T10:33:30.167Z,38.83
2023-05-05T10:34:13.499Z,38.97
2023-05-05T10:35:12.305Z,39.50
2023-05-05T10:36:12.317Z,39.99
2023-05-05T10:37:12.286Z,40.31
2023-05-05T10:38:13.297Z,38.91
2023-05-05T10:39:13.044Z,39.26
2023-05-05T10:40:12.290Z,39.68
2023-05-05T10:41:12.260Z,41.08
2023-05-05T10:42:12.242Z,45.55
2023-05-05T10:43:12.552Z,48.54
2023-05-05T10:44:12.254Z,52.07
2023-05-05T10:45:12.225Z,51.79
2023-05-05T10:46:12.223Z,55.87
2023-05-05T10:47:12.188Z,56.15
2023-05-05T10:48:12.237Z,56.09
2023-05-05T10:49:13.249Z,58.16
2023-05-05T10:50:12.177Z,59.87
2023-05-05T10:51:12.147Z,63.52
2023-05-05T10:52:12.143Z,60.79
2023-05-05T10:53:12.118Z,63.71
2023-05-05T10:54:12.133Z,64.00
2023-05-05T10:55:12.093Z,62.47
2023-05-05T10:56:13.053Z,62.85
2023-05-05T10:57:12.057Z,63.70
2023-05-05T10:58:12.052Z,62.73
2023-05-05T10:59:12.999Z,64.08
2023-05-05T11:00:14.578Z,65.14
2023-05-05T11:01:12.027Z,67.15
2023-05-05T11:02:12.059Z,70.39
2023-05-05T11:03:12.059Z,74.70
2023-05-05T11:04:11.963Z,74.88
2023-05-05T11:05:11.958Z,75.57
2023-05-05T11:06:11.921Z,76.26
2023-05-05T11:07:14.690Z,74.82
2023-05-05T11:08:11.893Z,74.96
2023-05-05T11:09:11.882Z,75.36
2023-05-05T11:10:12.012Z,75.85
2023-05-05T11:11:11.859Z,76.43
2023-05-05T11:12:11.856Z,77.87
2023-05-05T11:13:11.940Z,78.99
2023-05-05T11:14:11.822Z,78.82
2023-05-05T11:15:11.838Z,77.01
2023-05-05T11:16:11.848Z,76.62
2023-05-05T11:17:11.823Z,76.76
2023-05-05T11:18:11.860Z,76.60
2023-05-05T11:19:11.810Z,76.69
2023-05-05T11:20:11.801Z,74.81
2023-05-05T11:21:11.793Z,75.52
2023-05-05T11:22:11.866Z,75.33
2023-05-05T11:23:12.588Z,74.74
2023-05-05T11:24:11.787Z,75.07
2023-05-05T11:25:11.792Z,75.09
2023-05-05T11:26:12.780Z,75.14
2023-05-05T11:27:11.772Z,75.17
2023-05-05T11:28:11.898Z,75.26
2023-05-05T11:29:12.617Z,74.04
2023-05-05T11:30:11.855Z,73.23
2023-05-05T11:31:11.780Z,72.66
2023-05-05T11:32:11.813Z,72.97
2023-05-05T11:33:11.743Z,71.11
2023-05-05T11:34:11.752Z,71.06
2023-05-05T11:35:11.836Z,71.28
2023-05-05T11:36:11.764Z,70.85
2023-05-05T11:37:11.789Z,70.54
2023-05-05T11:38:12.107Z,69.48
2023-05-05T11:39:11.934Z,69.91
2023-05-05T11:40:12.063Z,69.36
2023-05-05T11:41:12.021Z,67.87
2023-05-05T11:42:12.069Z,68.95
2023-05-05T11:43:12.119Z,68.32
2023-05-05T11:44:12.193Z,67.62
2023-05-05T11:45:12.242Z,67.20
2023-05-05T11:46:12.373Z,66.21
2023-05-05T11:47:12.336Z,67.06
2023-05-05T11:48:12.518Z,65.90
2023-05-05T11:49:12.442Z,65.02
2023-05-05T11:50:12.506Z,65.30
2023-05-05T11:51:12.552Z,65.22
2023-05-05T11:52:12.626Z,63.58
2023-05-05T11:53:12.659Z,65.14
2023-05-05T11:54:12.719Z,63.04
2023-05-05T11:55:12.773Z,62.15
2023-05-05T11:56:12.837Z,62.48
2023-05-05T11:57:12.885Z,62.45
2023-05-05T11:58:12.926Z,61.29
2023-05-05T11:59:12.969Z,61.12
2023-05-05T12:00:13.077Z,61.55
2023-05-05T12:01:13.061Z,60.44
2023-05-05T12:02:13.098Z,60.24
2023-05-05T12:03:13.179Z,58.90
2023-05-05T12:04:13.349Z,58.09
2023-05-05T12:05:13.226Z,59.62
2023-05-05T12:06:13.260Z,58.33
2023-05-05T12:07:13.306Z,58.69
2023-05-05T12:08:13.343Z,57.92
2023-05-05T12:09:13.382Z,58.23
2023-05-05T12:10:13.422Z,57.49
2023-05-05T12:11:13.450Z,56.37
2023-05-05T12:12:13.498Z,57.66
2023-05-05T12:13:13.576Z,57.34
2023-05-05T12:14:13.563Z,55.98
2023-05-05T12:15:14.582Z,55.48
2023-05-05T12:16:13.662Z,54.99
2023-05-05T12:17:13.661Z,55.02
2023-05-05T12:18:13.750Z,54.71
2023-05-05T12:19:13.728Z,53.99
2023-05-05T12:20:13.976Z,54.92
2023-05-05T12:21:13.803Z,53.58
2023-05-05T12:22:13.831Z,54.82
2023-05-05T12:23:13.853Z,53.87
2023-05-05T12:24:13.871Z,53.84
2023-05-05T12:25:13.906Z,52.05
2023-05-05T12:26:13.925Z,52.81
2023-05-05T12:27:13.954Z,51.99
2023-05-05T12:28:13.993Z,51.24
2023-05-05T12:29:14.008Z,52.12
2023-05-05T12:30:14.045Z,51.84
2023-05-05T12:31:14.237Z,50.41
2023-05-05T12:32:14.302Z,50.73
2023-05-05T12:33:14.087Z,49.94
2023-05-05T12:34:14.176Z,49.96
2023-05-05T12:35:14.127Z,49.90
2023-05-05T12:36:14.250Z,49.82
2023-05-05T12:37:14.159Z,49.91
2023-05-05T12:38:14.183Z,49.06
2023-05-05T12:39:14.197Z,48.58
2023-05-05T12:40:14.215Z,49.01
2023-05-05T12:41:14.239Z,48.05
2023-05-05T12:42:14.243Z,48.76
2023-05-05T12:43:14.262Z,47.95
2023-05-05T12:44:14.275Z,47.90
2023-05-05T12:45:14.301Z,47.78
2023-05-05T12:46:14.365Z,47.52
2023-05-05T12:47:14.327Z,46.62
2023-05-05T12:48:14.333Z,46.87
2023-05-05T12:49:14.349Z,47.36
2023-05-05T12:50:14.355Z,45.95
2023-05-05T12:51:14.369Z,46.00
2023-05-05T12:52:14.459Z,45.58
2023-05-05T12:53:14.373Z,46.21
2023-05-05T12:54:14.380Z,45.27
2023-05-05T12:55:14.383Z,45.39
2023-05-05T12:56:14.382Z,45.22
2023-05-05T12:57:14.378Z,44.50
2023-05-05T12:58:14.380Z,43.53
2023-05-05T12:59:14.395Z,44.75
2023-05-05T13:00:14.386Z,44.38
2023-05-05T13:01:14.390Z,43.02
2023-05-05T13:02:14.388Z,43.16
2023-05-05T13:03:14.433Z,42.56
2023-05-05T13:04:14.399Z,42.75
2023-05-05T13:05:14.366Z,42.50
2023-05-05T13:06:14.360Z,42.26
2023-05-05T13:07:14.407Z,42.09